sensor_id;sensor_type;location;lat;lon;timestamp;P1;durP1;ratioP1;P2;durP2;ratioP2
78908;SDS011;68298;37.368;127.108;2023-04-06T00:02:20;23.15;;;14.45;;
78908;SDS011;68298;37.368;127.108;2023-04-06T00:04:51;21.80;;;14.93;;
78908;SDS011;68298;37.368;127.108;2023-04-06T00:07:24;25.02;;;15.23;;
78908;SDS011;68298;37.368;127.108;2023-04-06T00:09:55;24.35;;;14.90;;
78908;SDS011;68298;37.368;127.108;2023-04-06T00:12:25;22.42;;;13.43;;
78908;SDS011;68298;37.368;127.108;2023-04-06T00:14:56;20.30;;;12.70;;
78908;SDS011;68298;37.368;127.108;2023-04-06T00:17:26;21.67;;;13.10;;
78908;SDS011;68298;37.368;127.108;2023-04-06T00:19:57;19.38;;;12.32;;
78908;SDS011;68298;37.368;127.108;2023-04-06T00:22:27;19.13;;;12.35;;
78908;SDS011;68298;37.368;127.108;2023-04-06T00:24:58;16.85;;;11.50;;
78908;SDS011;68298;37.368;127.108;2023-04-06T00:27:29;19.02;;;11.85;;
78908;SDS011;68298;37.368;127.108;2023-04-06T00:29:59;19.92;;;12.73;;
78908;SDS011;68298;37.368;127.108;2023-04-06T00:32:30;19.33;;;12.55;;
78908;SDS011;68298;37.368;127.108;2023-04-06T00:35:04;20.13;;;12.48;;
78908;SDS011;68298;37.368;127.108;2023-04-06T00:37:35;22.15;;;12.18;;
78908;SDS011;68298;37.368;127.108;2023-04-06T00:40:06;20.17;;;13.27;;
78908;SDS011;68298;37.368;127.108;2023-04-06T00:42:38;19.85;;;12.55;;
78908;SDS011;68298;37.368;127.108;2023-04-06T00:45:10;19.23;;;12.50;;
78908;SDS011;68298;37.368;127.108;2023-04-06T00:47:40;19.95;;;12.57;;
78908;SDS011;68298;37.368;127.108;2023-04-06T00:50:11;20.67;;;13.25;;
78908;SDS011;68298;37.368;127.108;2023-04-06T00:52:42;24.30;;;14.45;;
78908;SDS011;68298;37.368;127.108;2023-04-06T00:55:12;22.00;;;13.48;;
78908;SDS011;68298;37.368;127.108;2023-04-06T00:57:43;21.88;;;13.88;;
78908;SDS011;68298;37.368;127.108;2023-04-06T01:00:14;23.27;;;13.20;;
78908;SDS011;68298;37.368;127.108;2023-04-06T01:02:48;22.77;;;14.18;;
78908;SDS011;68298;37.368;127.108;2023-04-06T01:05:22;24.08;;;13.73;;
78908;SDS011;68298;37.368;127.108;2023-04-06T01:07:56;26.33;;;13.98;;
78908;SDS011;68298;37.368;127.108;2023-04-06T01:10:28;25.90;;;14.60;;
78908;SDS011;68298;37.368;127.108;2023-04-06T01:13:10;22.05;;;12.88;;
78908;SDS011;68298;37.368;127.108;2023-04-06T01:15:53;25.90;;;14.55;;
78908;SDS011;68298;37.368;127.108;2023-04-06T01:18:34;25.55;;;14.52;;
78908;SDS011;68298;37.368;127.108;2023-04-06T01:21:31;26.38;;;14.45;;
78908;SDS011;68298;37.368;127.108;2023-04-06T01:24:19;26.02;;;15.30;;
78908;SDS011;68298;37.368;127.108;2023-04-06T01:26:58;24.83;;;15.18;;
78908;SDS011;68298;37.368;127.108;2023-04-06T01:29:53;26.83;;;15.88;;
78908;SDS011;68298;37.368;127.108;2023-04-06T01:33:02;30.25;;;16.50;;
78908;SDS011;68298;37.368;127.108;2023-04-06T01:38:25;26.95;;;15.15;;
78908;SDS011;68298;37.368;127.108;2023-04-06T01:40:56;27.50;;;15.80;;
78908;SDS011;68298;37.368;127.108;2023-04-06T01:43:32;26.88;;;15.45;;
78908;SDS011;68298;37.368;127.108;2023-04-06T01:46:08;24.10;;;14.30;;
78908;SDS011;68298;37.368;127.108;2023-04-06T01:48:42;23.15;;;13.85;;
78908;SDS011;68298;37.368;127.108;2023-04-06T01:51:27;22.88;;;13.50;;
78908;SDS011;68298;37.368;127.108;2023-04-06T01:54:01;22.65;;;12.43;;
78908;SDS011;68298;37.368;127.108;2023-04-06T01:56:52;25.42;;;15.10;;
78908;SDS011;68298;37.368;127.108;2023-04-06T01:59:52;23.65;;;14.00;;
78908;SDS011;68298;37.368;127.108;2023-04-06T02:02:39;22.45;;;12.75;;
78908;SDS011;68298;37.368;127.108;2023-04-06T02:05:16;23.20;;;14.35;;
78908;SDS011;68298;37.368;127.108;2023-04-06T02:07:48;22.05;;;13.02;;
78908;SDS011;68298;37.368;127.108;2023-04-06T02:10:29;24.38;;;14.02;;
78908;SDS011;68298;37.368;127.108;2023-04-06T02:13:06;20.85;;;13.25;;
78908;SDS011;68298;37.368;127.108;2023-04-06T02:15:39;21.75;;;13.63;;
78908;SDS011;68298;37.368;127.108;2023-04-06T02:18:12;21.00;;;12.73;;
78908;SDS011;68298;37.368;127.108;2023-04-06T02:20:44;22.73;;;13.35;;
78908;SDS011;68298;37.368;127.108;2023-04-06T02:23:14;19.85;;;11.88;;
78908;SDS011;68298;37.368;127.108;2023-04-06T02:25:51;17.85;;;11.38;;
78908;SDS011;68298;37.368;127.108;2023-04-06T02:28:35;16.23;;;11.00;;
78908;SDS011;68298;37.368;127.108;2023-04-06T02:31:05;17.95;;;11.10;;
78908;SDS011;68298;37.368;127.108;2023-04-06T02:33:37;17.63;;;11.05;;
78908;SDS011;68298;37.368;127.108;2023-04-06T02:36:09;18.40;;;11.57;;
78908;SDS011;68298;37.368;127.108;2023-04-06T02:38:39;15.75;;;10.27;;
78908;SDS011;68298;37.368;127.108;2023-04-06T02:41:11;14.88;;;9.90;;
78908;SDS011;68298;37.368;127.108;2023-04-06T02:43:42;14.38;;;9.75;;
78908;SDS011;68298;37.368;127.108;2023-04-06T02:46:20;14.55;;;8.98;;
78908;SDS011;68298;37.368;127.108;2023-04-06T02:48:51;12.35;;;9.05;;
78908;SDS011;68298;37.368;127.108;2023-04-06T02:51:22;17.13;;;9.30;;
78908;SDS011;68298;37.368;127.108;2023-04-06T02:53:56;12.63;;;8.35;;
78908;SDS011;68298;37.368;127.108;2023-04-06T02:56:28;16.67;;;8.32;;
78908;SDS011;68298;37.368;127.108;2023-04-06T02:58:58;10.30;;;7.13;;
78908;SDS011;68298;37.368;127.108;2023-04-06T03:01:32;12.07;;;6.65;;
78908;SDS011;68298;37.368;127.108;2023-04-06T03:04:04;9.77;;;6.97;;
78908;SDS011;68298;37.368;127.108;2023-04-06T03:06:35;9.40;;;6.55;;
78908;SDS011;68298;37.368;127.108;2023-04-06T03:09:16;9.38;;;6.65;;
78908;SDS011;68298;37.368;127.108;2023-04-06T03:11:47;9.23;;;6.75;;
78908;SDS011;68298;37.368;127.108;2023-04-06T03:14:18;9.73;;;6.68;;
78908;SDS011;68298;37.368;127.108;2023-04-06T03:16:50;7.97;;;6.03;;
78908;SDS011;68298;37.368;127.108;2023-04-06T03:19:22;8.65;;;6.20;;
78908;SDS011;68298;37.368;127.108;2023-04-06T03:21:56;8.27;;;5.70;;
78908;SDS011;68298;37.368;127.108;2023-04-06T03:24:27;8.68;;;5.82;;
78908;SDS011;68298;37.368;127.108;2023-04-06T03:26:58;7.78;;;5.25;;
78908;SDS011;68298;37.368;127.108;2023-04-06T03:29:30;7.50;;;5.13;;
78908;SDS011;68298;37.368;127.108;2023-04-06T03:32:00;6.40;;;4.72;;
78908;SDS011;68298;37.368;127.108;2023-04-06T03:34:38;7.13;;;4.63;;
78908;SDS011;68298;37.368;127.108;2023-04-06T03:37:09;6.40;;;4.70;;
78908;SDS011;68298;37.368;127.108;2023-04-06T03:39:46;6.10;;;4.55;;
78908;SDS011;68298;37.368;127.108;2023-04-06T03:42:21;6.00;;;4.22;;
78908;SDS011;68298;37.368;127.108;2023-04-06T03:45:02;7.75;;;4.15;;
78908;SDS011;68298;37.368;127.108;2023-04-06T03:47:34;5.70;;;4.50;;
78908;SDS011;68298;37.368;127.108;2023-04-06T03:50:07;6.03;;;3.72;;
78908;SDS011;68298;37.368;127.108;2023-04-06T03:52:38;4.93;;;3.70;;
78908;SDS011;68298;37.368;127.108;2023-04-06T03:55:09;4.15;;;3.05;;
78908;SDS011;68298;37.368;127.108;2023-04-06T03:57:40;4.72;;;3.38;;
78908;SDS011;68298;37.368;127.108;2023-04-06T04:00:12;3.28;;;2.67;;
78908;SDS011;68298;37.368;127.108;2023-04-06T04:02:42;3.75;;;2.90;;
78908;SDS011;68298;37.368;127.108;2023-04-06T04:05:13;5.10;;;2.83;;
78908;SDS011;68298;37.368;127.108;2023-04-06T04:07:44;3.50;;;3.05;;
78908;SDS011;68298;37.368;127.108;2023-04-06T04:10:14;4.38;;;3.35;;
78908;SDS011;68298;37.368;127.108;2023-04-06T04:12:46;3.40;;;2.70;;
78908;SDS011;68298;37.368;127.108;2023-04-06T04:15:16;4.25;;;3.42;;
78908;SDS011;68298;37.368;127.108;2023-04-06T04:17:47;5.20;;;4.28;;
78908;SDS011;68298;37.368;127.108;2023-04-06T04:20:19;4.50;;;3.35;;
78908;SDS011;68298;37.368;127.108;2023-04-06T04:22:50;5.43;;;3.90;;
78908;SDS011;68298;37.368;127.108;2023-04-06T04:25:22;5.95;;;4.35;;
78908;SDS011;68298;37.368;127.108;2023-04-06T04:27:53;5.35;;;4.07;;
78908;SDS011;68298;37.368;127.108;2023-04-06T04:30:24;6.18;;;4.45;;
78908;SDS011;68298;37.368;127.108;2023-04-06T04:32:54;4.45;;;3.58;;
78908;SDS011;68298;37.368;127.108;2023-04-06T04:35:26;8.23;;;6.38;;
78908;SDS011;68298;37.368;127.108;2023-04-06T04:37:57;7.70;;;4.70;;
78908;SDS011;68298;37.368;127.108;2023-04-06T04:40:27;13.07;;;7.85;;
78908;SDS011;68298;37.368;127.108;2023-04-06T04:43:07;14.75;;;8.98;;
78908;SDS011;68298;37.368;127.108;2023-04-06T04:45:38;16.90;;;8.93;;
78908;SDS011;68298;37.368;127.108;2023-04-06T04:48:19;13.77;;;10.20;;
78908;SDS011;68298;37.368;127.108;2023-04-06T04:50:54;14.07;;;10.65;;
78908;SDS011;68298;37.368;127.108;2023-04-06T04:53:31;16.88;;;11.25;;
78908;SDS011;68298;37.368;127.108;2023-04-06T04:56:13;24.45;;;14.32;;
78908;SDS011;68298;37.368;127.108;2023-04-06T04:58:45;20.83;;;14.03;;
78908;SDS011;68298;37.368;127.108;2023-04-06T05:01:17;25.77;;;14.52;;
78908;SDS011;68298;37.368;127.108;2023-04-06T05:03:47;23.05;;;15.35;;
78908;SDS011;68298;37.368;127.108;2023-04-06T05:06:18;27.45;;;14.52;;
78908;SDS011;68298;37.368;127.108;2023-04-06T05:08:50;28.15;;;17.85;;
78908;SDS011;68298;37.368;127.108;2023-04-06T05:11:21;26.98;;;17.92;;
78908;SDS011;68298;37.368;127.108;2023-04-06T05:13:57;33.58;;;18.00;;
78908;SDS011;68298;37.368;127.108;2023-04-06T05:16:29;34.58;;;19.13;;
78908;SDS011;68298;37.368;127.108;2023-04-06T05:19:00;34.58;;;18.85;;
78908;SDS011;68298;37.368;127.108;2023-04-06T05:21:38;35.75;;;20.55;;
78908;SDS011;68298;37.368;127.108;2023-04-06T05:24:09;32.10;;;22.08;;
78908;SDS011;68298;37.368;127.108;2023-04-06T05:26:41;31.17;;;21.03;;
78908;SDS011;68298;37.368;127.108;2023-04-06T05:29:18;35.30;;;22.45;;
78908;SDS011;68298;37.368;127.108;2023-04-06T05:31:50;33.83;;;23.63;;
78908;SDS011;68298;37.368;127.108;2023-04-06T05:34:21;37.72;;;25.20;;
78908;SDS011;68298;37.368;127.108;2023-04-06T05:36:51;38.40;;;26.92;;
78908;SDS011;68298;37.368;127.108;2023-04-06T05:39:24;55.03;;;30.23;;
78908;SDS011;68298;37.368;127.108;2023-04-06T05:41:55;55.20;;;30.50;;
78908;SDS011;68298;37.368;127.108;2023-04-06T05:44:48;59.97;;;33.97;;
78908;SDS011;68298;37.368;127.108;2023-04-06T05:47:19;65.10;;;36.15;;
78908;SDS011;68298;37.368;127.108;2023-04-06T05:49:58;69.18;;;39.47;;
78908;SDS011;68298;37.368;127.108;2023-04-06T05:52:35;67.18;;;41.65;;
78908;SDS011;68298;37.368;127.108;2023-04-06T05:55:05;70.93;;;43.00;;
78908;SDS011;68298;37.368;127.108;2023-04-06T05:57:40;85.63;;;48.35;;
78908;SDS011;68298;37.368;127.108;2023-04-06T06:00:14;71.88;;;44.13;;
78908;SDS011;68298;37.368;127.108;2023-04-06T06:02:56;78.10;;;45.65;;
78908;SDS011;68298;37.368;127.108;2023-04-06T06:05:28;69.03;;;42.13;;
78908;SDS011;68298;37.368;127.108;2023-04-06T06:08:07;59.92;;;39.20;;
78908;SDS011;68298;37.368;127.108;2023-04-06T06:10:38;67.22;;;38.55;;
78908;SDS011;68298;37.368;127.108;2023-04-06T06:13:11;70.05;;;41.75;;
78908;SDS011;68298;37.368;127.108;2023-04-06T06:15:42;67.72;;;42.42;;
78908;SDS011;68298;37.368;127.108;2023-04-06T06:20:47;64.55;;;41.17;;
78908;SDS011;68298;37.368;127.108;2023-04-06T06:23:18;73.05;;;44.88;;
78908;SDS011;68298;37.368;127.108;2023-04-06T06:25:48;70.70;;;43.63;;
78908;SDS011;68298;37.368;127.108;2023-04-06T06:30:52;71.07;;;42.00;;
78908;SDS011;68298;37.368;127.108;2023-04-06T06:33:24;74.40;;;44.63;;
78908;SDS011;68298;37.368;127.108;2023-04-06T06:35:55;68.72;;;41.40;;
78908;SDS011;68298;37.368;127.108;2023-04-06T06:38:29;70.70;;;43.85;;
78908;SDS011;68298;37.368;127.108;2023-04-06T06:41:01;65.53;;;42.10;;
78908;SDS011;68298;37.368;127.108;2023-04-06T06:46:07;65.72;;;41.10;;
78908;SDS011;68298;37.368;127.108;2023-04-06T06:48:40;74.15;;;42.17;;
78908;SDS011;68298;37.368;127.108;2023-04-06T06:51:11;69.28;;;42.30;;
78908;SDS011;68298;37.368;127.108;2023-04-06T06:53:41;69.10;;;40.80;;
78908;SDS011;68298;37.368;127.108;2023-04-06T06:56:11;71.13;;;42.33;;
78908;SDS011;68298;37.368;127.108;2023-04-06T06:58:43;70.10;;;42.05;;
78908;SDS011;68298;37.368;127.108;2023-04-06T07:01:14;69.03;;;39.63;;
78908;SDS011;68298;37.368;127.108;2023-04-06T07:03:45;68.95;;;42.67;;
78908;SDS011;68298;37.368;127.108;2023-04-06T07:06:15;73.05;;;44.92;;
78908;SDS011;68298;37.368;127.108;2023-04-06T07:08:45;74.13;;;44.40;;
78908;SDS011;68298;37.368;127.108;2023-04-06T07:11:16;65.60;;;41.60;;
78908;SDS011;68298;37.368;127.108;2023-04-06T07:13:47;73.57;;;44.40;;
78908;SDS011;68298;37.368;127.108;2023-04-06T07:16:17;69.63;;;41.55;;
78908;SDS011;68298;37.368;127.108;2023-04-06T07:18:50;66.88;;;42.55;;
78908;SDS011;68298;37.368;127.108;2023-04-06T07:21:20;71.15;;;44.90;;
78908;SDS011;68298;37.368;127.108;2023-04-06T07:23:51;64.05;;;39.92;;
78908;SDS011;68298;37.368;127.108;2023-04-06T07:26:21;72.13;;;44.08;;
78908;SDS011;68298;37.368;127.108;2023-04-06T07:28:52;64.57;;;41.97;;
78908;SDS011;68298;37.368;127.108;2023-04-06T07:31:24;70.45;;;43.00;;
78908;SDS011;68298;37.368;127.108;2023-04-06T07:33:54;69.22;;;41.65;;
78908;SDS011;68298;37.368;127.108;2023-04-06T07:36:26;61.40;;;40.58;;
78908;SDS011;68298;37.368;127.108;2023-04-06T07:38:56;66.32;;;41.97;;
78908;SDS011;68298;37.368;127.108;2023-04-06T07:41:27;69.97;;;42.10;;
78908;SDS011;68298;37.368;127.108;2023-04-06T07:43:57;65.78;;;41.10;;
78908;SDS011;68298;37.368;127.108;2023-04-06T07:46:28;69.00;;;42.50;;
78908;SDS011;68298;37.368;127.108;2023-04-06T07:49:02;71.03;;;42.90;;
78908;SDS011;68298;37.368;127.108;2023-04-06T07:51:38;64.38;;;40.25;;
78908;SDS011;68298;37.368;127.108;2023-04-06T07:54:09;67.25;;;43.55;;
78908;SDS011;68298;37.368;127.108;2023-04-06T07:56:41;72.78;;;44.45;;
78908;SDS011;68298;37.368;127.108;2023-04-06T07:59:15;73.97;;;43.55;;
78908;SDS011;68298;37.368;127.108;2023-04-06T08:01:45;66.13;;;40.38;;
78908;SDS011;68298;37.368;127.108;2023-04-06T08:04:16;77.47;;;46.08;;
78908;SDS011;68298;37.368;127.108;2023-04-06T08:06:46;80.10;;;43.95;;
78908;SDS011;68298;37.368;127.108;2023-04-06T08:09:17;72.45;;;42.05;;
78908;SDS011;68298;37.368;127.108;2023-04-06T08:11:47;62.65;;;40.10;;
78908;SDS011;68298;37.368;127.108;2023-04-06T08:14:18;70.28;;;39.80;;
78908;SDS011;68298;37.368;127.108;2023-04-06T08:16:49;63.58;;;38.63;;
78908;SDS011;68298;37.368;127.108;2023-04-06T08:19:19;60.35;;;38.40;;
78908;SDS011;68298;37.368;127.108;2023-04-06T08:21:51;67.47;;;42.90;;
78908;SDS011;68298;37.368;127.108;2023-04-06T08:24:21;71.72;;;38.85;;
78908;SDS011;68298;37.368;127.108;2023-04-06T08:26:52;64.43;;;40.42;;
78908;SDS011;68298;37.368;127.108;2023-04-06T08:29:23;63.88;;;40.35;;
78908;SDS011;68298;37.368;127.108;2023-04-06T08:31:53;65.93;;;39.72;;
78908;SDS011;68298;37.368;127.108;2023-04-06T08:34:25;61.35;;;38.50;;
78908;SDS011;68298;37.368;127.108;2023-04-06T08:36:55;55.20;;;36.88;;
78908;SDS011;68298;37.368;127.108;2023-04-06T08:39:27;56.83;;;38.00;;
78908;SDS011;68298;37.368;127.108;2023-04-06T08:42:02;63.08;;;39.83;;
78908;SDS011;68298;37.368;127.108;2023-04-06T08:44:33;67.88;;;39.92;;
78908;SDS011;68298;37.368;127.108;2023-04-06T08:47:04;60.83;;;38.13;;
78908;SDS011;68298;37.368;127.108;2023-04-06T08:49:35;60.50;;;39.55;;
78908;SDS011;68298;37.368;127.108;2023-04-06T08:52:10;58.13;;;38.72;;
78908;SDS011;68298;37.368;127.108;2023-04-06T08:54:42;59.67;;;39.58;;
78908;SDS011;68298;37.368;127.108;2023-04-06T08:57:12;61.58;;;40.03;;
78908;SDS011;68298;37.368;127.108;2023-04-06T08:59:44;56.58;;;36.72;;
78908;SDS011;68298;37.368;127.108;2023-04-06T09:02:15;61.10;;;39.38;;
78908;SDS011;68298;37.368;127.108;2023-04-06T09:04:49;57.92;;;38.22;;
78908;SDS011;68298;37.368;127.108;2023-04-06T09:07:23;56.92;;;37.90;;
78908;SDS011;68298;37.368;127.108;2023-04-06T09:09:54;59.90;;;37.70;;
78908;SDS011;68298;37.368;127.108;2023-04-06T09:12:28;64.63;;;39.45;;
78908;SDS011;68298;37.368;127.108;2023-04-06T09:15:00;56.00;;;37.75;;
78908;SDS011;68298;37.368;127.108;2023-04-06T09:17:31;60.03;;;40.17;;
78908;SDS011;68298;37.368;127.108;2023-04-06T09:20:03;61.25;;;38.83;;
78908;SDS011;68298;37.368;127.108;2023-04-06T09:22:37;56.80;;;38.50;;
78908;SDS011;68298;37.368;127.108;2023-04-06T09:25:09;57.17;;;37.28;;
78908;SDS011;68298;37.368;127.108;2023-04-06T09:28:00;54.38;;;37.45;;
78908;SDS011;68298;37.368;127.108;2023-04-06T09:30:32;56.83;;;39.55;;
78908;SDS011;68298;37.368;127.108;2023-04-06T09:33:05;58.70;;;37.50;;
78908;SDS011;68298;37.368;127.108;2023-04-06T09:35:35;56.00;;;38.55;;
78908;SDS011;68298;37.368;127.108;2023-04-06T09:38:10;52.95;;;35.95;;
78908;SDS011;68298;37.368;127.108;2023-04-06T09:40:50;56.40;;;36.92;;
78908;SDS011;68298;37.368;127.108;2023-04-06T09:43:29;54.13;;;36.72;;
78908;SDS011;68298;37.368;127.108;2023-04-06T09:46:00;59.92;;;40.90;;
78908;SDS011;68298;37.368;127.108;2023-04-06T09:48:33;60.28;;;40.85;;
78908;SDS011;68298;37.368;127.108;2023-04-06T09:51:05;68.22;;;44.85;;
78908;SDS011;68298;37.368;127.108;2023-04-06T09:53:39;65.22;;;43.70;;
78908;SDS011;68298;37.368;127.108;2023-04-06T09:56:16;63.13;;;42.40;;
78908;SDS011;68298;37.368;127.108;2023-04-06T09:58:49;69.80;;;45.35;;
78908;SDS011;68298;37.368;127.108;2023-04-06T10:01:23;67.30;;;44.28;;
78908;SDS011;68298;37.368;127.108;2023-04-06T10:05:02;73.78;;;47.40;;
78908;SDS011;68298;37.368;127.108;2023-04-06T10:07:13;72.32;;;48.47;;
78908;SDS011;68298;37.368;127.108;2023-04-06T10:09:45;73.15;;;47.92;;
78908;SDS011;68298;37.368;127.108;2023-04-06T10:12:17;77.68;;;52.30;;
78908;SDS011;68298;37.368;127.108;2023-04-06T10:14:48;77.28;;;51.30;;
78908;SDS011;68298;37.368;127.108;2023-04-06T10:17:19;77.00;;;49.35;;
78908;SDS011;68298;37.368;127.108;2023-04-06T10:19:52;85.53;;;52.92;;
78908;SDS011;68298;37.368;127.108;2023-04-06T10:22:36;84.80;;;54.25;;
78908;SDS011;68298;37.368;127.108;2023-04-06T10:25:37;80.47;;;52.80;;
78908;SDS011;68298;37.368;127.108;2023-04-06T10:28:08;86.35;;;54.28;;
78908;SDS011;68298;37.368;127.108;2023-04-06T10:30:42;85.65;;;55.92;;
78908;SDS011;68298;37.368;127.108;2023-04-06T10:33:16;88.00;;;57.58;;
78908;SDS011;68298;37.368;127.108;2023-04-06T10:35:49;85.40;;;56.50;;
78908;SDS011;68298;37.368;127.108;2023-04-06T10:38:38;87.63;;;56.20;;
78908;SDS011;68298;37.368;127.108;2023-04-06T10:41:10;89.25;;;59.58;;
78908;SDS011;68298;37.368;127.108;2023-04-06T10:43:41;90.25;;;58.80;;
78908;SDS011;68298;37.368;127.108;2023-04-06T10:46:15;93.82;;;61.28;;
78908;SDS011;68298;37.368;127.108;2023-04-06T10:48:55;93.13;;;60.50;;
78908;SDS011;68298;37.368;127.108;2023-04-06T10:51:27;91.75;;;57.88;;
78908;SDS011;68298;37.368;127.108;2023-04-06T10:53:58;103.38;;;63.75;;
78908;SDS011;68298;37.368;127.108;2023-04-06T10:56:31;101.82;;;65.20;;
78908;SDS011;68298;37.368;127.108;2023-04-06T10:59:06;93.68;;;61.35;;
78908;SDS011;68298;37.368;127.108;2023-04-06T11:01:37;99.22;;;65.45;;
78908;SDS011;68298;37.368;127.108;2023-04-06T11:04:07;100.38;;;67.00;;
78908;SDS011;68298;37.368;127.108;2023-04-06T11:06:46;98.47;;;65.22;;
78908;SDS011;68298;37.368;127.108;2023-04-06T11:12:00;101.40;;;65.32;;
78908;SDS011;68298;37.368;127.108;2023-04-06T11:14:30;94.70;;;62.92;;
78908;SDS011;68298;37.368;127.108;2023-04-06T11:17:01;99.75;;;65.88;;
78908;SDS011;68298;37.368;127.108;2023-04-06T11:19:32;102.32;;;67.38;;
78908;SDS011;68298;37.368;127.108;2023-04-06T11:22:08;99.67;;;66.60;;
78908;SDS011;68298;37.368;127.108;2023-04-06T11:24:38;110.80;;;71.05;;
78908;SDS011;68298;37.368;127.108;2023-04-06T11:27:09;102.68;;;68.20;;
78908;SDS011;68298;37.368;127.108;2023-04-06T11:29:40;108.30;;;71.45;;
78908;SDS011;68298;37.368;127.108;2023-04-06T11:32:10;105.85;;;70.80;;
78908;SDS011;68298;37.368;127.108;2023-04-06T11:34:42;107.32;;;71.18;;
78908;SDS011;68298;37.368;127.108;2023-04-06T11:37:12;109.95;;;72.95;;
78908;SDS011;68298;37.368;127.108;2023-04-06T11:39:50;109.97;;;71.93;;
78908;SDS011;68298;37.368;127.108;2023-04-06T11:42:25;111.38;;;72.40;;
78908;SDS011;68298;37.368;127.108;2023-04-06T11:45:02;111.75;;;72.75;;
78908;SDS011;68298;37.368;127.108;2023-04-06T11:47:34;110.40;;;72.95;;
78908;SDS011;68298;37.368;127.108;2023-04-06T11:50:07;119.43;;;76.75;;
78908;SDS011;68298;37.368;127.108;2023-04-06T11:52:42;118.95;;;77.35;;
78908;SDS011;68298;37.368;127.108;2023-04-06T11:55:16;117.82;;;76.82;;
78908;SDS011;68298;37.368;127.108;2023-04-06T11:57:48;119.45;;;78.75;;
78908;SDS011;68298;37.368;127.108;2023-04-06T12:00:20;116.78;;;78.30;;
78908;SDS011;68298;37.368;127.108;2023-04-06T12:02:51;116.97;;;77.10;;
78908;SDS011;68298;37.368;127.108;2023-04-06T12:05:21;124.72;;;78.20;;
78908;SDS011;68298;37.368;127.108;2023-04-06T12:07:52;115.05;;;75.57;;
78908;SDS011;68298;37.368;127.108;2023-04-06T12:10:26;121.18;;;80.55;;
78908;SDS011;68298;37.368;127.108;2023-04-06T12:12:57;121.72;;;80.20;;
78908;SDS011;68298;37.368;127.108;2023-04-06T12:15:27;125.82;;;82.88;;
78908;SDS011;68298;37.368;127.108;2023-04-06T12:17:58;124.88;;;80.88;;
78908;SDS011;68298;37.368;127.108;2023-04-06T12:20:29;122.53;;;80.97;;
78908;SDS011;68298;37.368;127.108;2023-04-06T12:23:00;121.72;;;81.00;;
78908;SDS011;68298;37.368;127.108;2023-04-06T12:25:32;124.72;;;80.43;;
78908;SDS011;68298;37.368;127.108;2023-04-06T12:28:02;120.82;;;80.05;;
78908;SDS011;68298;37.368;127.108;2023-04-06T12:30:34;127.30;;;83.53;;
78908;SDS011;68298;37.368;127.108;2023-04-06T12:33:05;123.72;;;82.20;;
78908;SDS011;68298;37.368;127.108;2023-04-06T12:35:36;128.40;;;83.30;;
78908;SDS011;68298;37.368;127.108;2023-04-06T12:38:07;126.40;;;84.53;;
78908;SDS011;68298;37.368;127.108;2023-04-06T12:40:38;129.02;;;84.20;;
78908;SDS011;68298;37.368;127.108;2023-04-06T12:43:10;128.10;;;84.28;;
78908;SDS011;68298;37.368;127.108;2023-04-06T12:45:43;132.73;;;87.47;;
78908;SDS011;68298;37.368;127.108;2023-04-06T12:48:14;126.30;;;85.70;;
78908;SDS011;68298;37.368;127.108;2023-04-06T12:50:53;132.55;;;84.88;;
78908;SDS011;68298;37.368;127.108;2023-04-06T12:53:31;134.32;;;87.68;;
78908;SDS011;68298;37.368;127.108;2023-04-06T12:56:11;136.75;;;89.20;;
78908;SDS011;68298;37.368;127.108;2023-04-06T12:58:46;134.77;;;90.95;;
78908;SDS011;68298;37.368;127.108;2023-04-06T13:01:16;137.18;;;89.63;;
78908;SDS011;68298;37.368;127.108;2023-04-06T13:03:47;130.40;;;87.55;;
78908;SDS011;68298;37.368;127.108;2023-04-06T13:06:18;134.38;;;91.55;;
78908;SDS011;68298;37.368;127.108;2023-04-06T13:08:51;134.38;;;89.95;;
78908;SDS011;68298;37.368;127.108;2023-04-06T13:11:23;138.60;;;94.38;;
78908;SDS011;68298;37.368;127.108;2023-04-06T13:13:56;133.00;;;90.63;;
78908;SDS011;68298;37.368;127.108;2023-04-06T13:16:26;142.55;;;93.15;;
78908;SDS011;68298;37.368;127.108;2023-04-06T13:18:58;145.52;;;91.38;;
78908;SDS011;68298;37.368;127.108;2023-04-06T13:21:28;134.75;;;91.85;;
78908;SDS011;68298;37.368;127.108;2023-04-06T13:23:59;143.90;;;92.18;;
78908;SDS011;68298;37.368;127.108;2023-04-06T13:26:30;141.63;;;91.53;;
78908;SDS011;68298;37.368;127.108;2023-04-06T13:29:01;142.07;;;95.10;;
78908;SDS011;68298;37.368;127.108;2023-04-06T13:31:32;143.35;;;94.18;;
78908;SDS011;68298;37.368;127.108;2023-04-06T13:34:02;144.77;;;94.40;;
78908;SDS011;68298;37.368;127.108;2023-04-06T13:36:33;143.98;;;95.53;;
78908;SDS011;68298;37.368;127.108;2023-04-06T13:39:03;151.55;;;95.63;;
78908;SDS011;68298;37.368;127.108;2023-04-06T13:41:34;141.07;;;91.88;;
78908;SDS011;68298;37.368;127.108;2023-04-06T13:44:04;141.30;;;94.97;;
78908;SDS011;68298;37.368;127.108;2023-04-06T13:46:35;149.23;;;97.72;;
78908;SDS011;68298;37.368;127.108;2023-04-06T13:49:06;142.23;;;96.50;;
78908;SDS011;68298;37.368;127.108;2023-04-06T13:51:36;151.82;;;98.28;;
78908;SDS011;68298;37.368;127.108;2023-04-06T13:54:07;145.20;;;97.78;;
78908;SDS011;68298;37.368;127.108;2023-04-06T13:56:37;144.55;;;95.20;;
78908;SDS011;68298;37.368;127.108;2023-04-06T13:59:08;154.07;;;98.68;;
78908;SDS011;68298;37.368;127.108;2023-04-06T14:01:39;149.38;;;95.63;;
78908;SDS011;68298;37.368;127.108;2023-04-06T14:04:10;153.85;;;98.47;;
78908;SDS011;68298;37.368;127.108;2023-04-06T14:06:44;152.88;;;98.05;;
78908;SDS011;68298;37.368;127.108;2023-04-06T14:09:15;146.40;;;96.30;;
78908;SDS011;68298;37.368;127.108;2023-04-06T14:11:45;147.55;;;97.65;;
78908;SDS011;68298;37.368;127.108;2023-04-06T14:14:16;148.43;;;98.20;;
78908;SDS011;68298;37.368;127.108;2023-04-06T14:16:47;145.40;;;98.18;;
78908;SDS011;68298;37.368;127.108;2023-04-06T14:19:18;149.65;;;99.47;;
78908;SDS011;68298;37.368;127.108;2023-04-06T14:21:49;149.25;;;98.57;;
78908;SDS011;68298;37.368;127.108;2023-04-06T14:24:19;153.93;;;100.50;;
78908;SDS011;68298;37.368;127.108;2023-04-06T14:26:51;151.20;;;99.22;;
78908;SDS011;68298;37.368;127.108;2023-04-06T14:29:21;153.57;;;99.82;;
78908;SDS011;68298;37.368;127.108;2023-04-06T14:31:52;146.13;;;98.88;;
78908;SDS011;68298;37.368;127.108;2023-04-06T14:34:28;156.52;;;101.28;;
78908;SDS011;68298;37.368;127.108;2023-04-06T14:36:59;150.63;;;99.15;;
78908;SDS011;68298;37.368;127.108;2023-04-06T14:39:29;156.13;;;101.40;;
78908;SDS011;68298;37.368;127.108;2023-04-06T14:42:01;156.05;;;103.07;;
78908;SDS011;68298;37.368;127.108;2023-04-06T14:44:32;153.65;;;100.50;;